Time;durP1;ratioP1;P1;durP2;ratioP2;P2;SDS_P1;SDS_P2;PMS_P1;PMS_P2;Temp;Humidity;BMP_temperature;BMP_pressure;BME280_temperature;BME280_humidity;BME280_pressure;Samples;Min_cycle;Max_cycle;Signal;HPM_P1;HPM_P2
2022/11/21 00:01:23;;;;;;;26.30;11.23;;;-0.60;99.90;;;;;;5096622;28;20102;-71
2022/11/21 00:03:50;;;;;;;28.13;11.02;;;-0.60;99.90;;;;;;5096606;28;20359;-71
2022/11/21 00:06:18;;;;;;;28.05;12.27;;;-0.50;99.90;;;;;;5096905;28;20124;-71
2022/11/21 00:08:46;;;;;;;24.95;12.10;;;-0.50;99.90;;;;;;5096614;28;20301;-71
2022/11/21 00:11:13;;;;;;;26.30;11.13;;;-0.60;99.90;;;;;;5097094;28;20027;-71
2022/11/21 00:13:41;;;;;;;25.30;11.52;;;-0.50;99.90;;;;;;5078633;28;20020;-71
2022/11/21 00:16:16;;;;;;;24.65;12.27;;;-0.50;99.90;;;;;;5096787;28;20035;-71
2022/11/21 00:18:43;;;;;;;31.07;13.50;;;-0.50;99.90;;;;;;5096604;28;20077;-71
2022/11/21 00:21:16;;;;;;;28.02;12.27;;;-0.50;99.90;;;;;;5097155;28;20728;-71
2022/11/21 00:23:44;;;;;;;22.13;10.80;;;-0.50;99.90;;;;;;5096430;28;20035;-71
2022/11/21 00:26:13;;;;;;;23.50;11.23;;;-0.50;99.90;;;;;;5096670;28;20020;-71
2022/11/21 00:28:41;;;;;;;22.40;10.48;;;-0.50;99.90;;;;;;5097520;28;20036;-71
2022/11/21 00:31:18;;;;;;;24.10;11.40;;;-0.50;99.90;;;;;;5096936;28;20028;-71
2022/11/21 00:33:45;;;;;;;;;;;-0.50;99.90;;;;;;5096705;28;20024;-71
2022/11/21 00:36:12;;;;;;;21.73;10.88;;;-0.50;99.90;;;;;;5096929;28;19957;-71
2022/11/21 00:38:39;;;;;;;25.98;12.18;;;-0.50;99.90;;;;;;5097027;28;20020;-71
2022/11/21 00:41:07;;;;;;;27.13;11.75;;;-0.50;99.90;;;;;;5096844;28;20099;-71
2022/11/21 00:43:35;;;;;;;28.92;11.45;;;-0.50;99.90;;;;;;5078358;28;20016;-71
2022/11/21 00:46:03;;;;;;;24.90;11.35;;;-0.50;99.90;;;;;;5079225;28;20123;-71
2022/11/21 00:48:31;;;;;;;25.40;10.45;;;-0.50;99.90;;;;;;5100415;28;20035;-71
2022/11/21 00:50:59;;;;;;;23.17;10.93;;;-0.50;99.90;;;;;;5100033;28;20024;-71
2022/11/21 00:53:27;;;;;;;22.23;10.48;;;-0.50;99.90;;;;;;5099892;28;20031;-71
2022/11/21 00:55:55;;;;;;;26.63;11.77;;;-0.50;99.90;;;;;;5099929;28;20122;-71
2022/11/21 00:58:22;;;;;;;22.88;10.85;;;-0.50;99.90;;;;;;5100043;28;20031;-71
2022/11/21 01:00:49;;;;;;;26.90;12.57;;;-0.50;99.90;;;;;;5099831;28;20412;-71
2022/11/21 01:03:16;;;;;;;22.13;10.55;;;-0.50;99.90;;;;;;5100086;28;20030;-71
2022/11/21 01:05:44;;;;;;;24.02;10.90;;;-0.50;99.90;;;;;;5099743;28;20028;-71
2022/11/21 01:08:11;;;;;;;20.85;10.38;;;-0.50;99.90;;;;;;5099776;28;20027;-71
2022/11/21 01:10:38;;;;;;;26.05;10.40;;;-0.50;99.90;;;;;;5100187;28;20030;-71
2022/11/21 01:13:06;;;;;;;23.10;10.90;;;-0.50;99.90;;;;;;5100150;28;20016;-71
2022/11/21 01:15:34;;;;;;;23.25;11.25;;;-0.50;99.90;;;;;;5099562;28;20020;-71
2022/11/21 01:18:01;;;;;;;26.15;11.07;;;-0.50;99.90;;;;;;5099518;28;20028;-71
2022/11/21 01:20:28;;;;;;;24.55;11.18;;;-0.50;99.90;;;;;;5099625;28;20131;-71
2022/11/21 01:22:55;;;;;;;22.13;10.70;;;-0.50;99.90;;;;;;5099985;28;20031;-71
2022/11/21 01:25:23;;;;;;;23.42;10.52;;;-0.50;99.90;;;;;;5081369;28;20028;-71
2022/11/21 01:27:50;;;;;;;23.55;10.77;;;-0.50;99.90;;;;;;5081440;28;20028;-71
2022/11/21 01:30:17;;;;;;;24.90;11.38;;;-0.50;99.90;;;;;;5099793;28;20020;-71
2022/11/21 01:32:48;;;;;;;21.75;9.43;;;-0.50;99.90;;;;;;5099168;28;20445;-71
2022/11/21 01:35:17;;;;;;;24.70;10.73;;;-0.50;99.90;;;;;;5099169;28;20466;-71
2022/11/21 01:37:48;;;;;;;24.35;10.68;;;-0.50;99.90;;;;;;5099256;28;20083;-71
2022/11/21 01:40:16;;;;;;;20.80;9.70;;;-0.60;99.90;;;;;;5099593;28;20031;-71
2022/11/21 01:42:58;;;;;;;21.35;10.02;;;-0.60;99.90;;;;;;5099072;28;20032;-71
2022/11/21 01:46:02;;;;;;;24.40;10.48;;;-0.60;99.90;;;;;;5081261;28;20062;-71
2022/11/21 01:48:40;;;;;;;23.08;10.18;;;-0.60;99.90;;;;;;5081018;28;20024;-71
2022/11/21 01:51:21;;;;;;;19.40;9.60;;;-0.60;99.90;;;;;;5099413;28;20030;-71
2022/11/21 01:54:18;;;;;;;25.33;11.30;;;-0.60;99.90;;;;;;5080943;28;20027;-71
2022/11/21 01:56:57;;;;;;;25.63;9.93;;;-0.60;99.90;;;;;;5078561;28;20028;-71
2022/11/21 01:59:53;;;;;;;28.63;11.93;;;-0.60;99.90;;;;;;5079176;28;20340;-71
2022/11/21 02:02:27;;;;;;;23.33;10.23;;;-0.60;99.90;;;;;;5060901;28;20329;-71
2022/11/21 02:04:56;;;;;;;23.30;9.25;;;-0.60;99.90;;;;;;5060606;28;20021;-71
2022/11/21 02:07:25;;;;;;;20.23;10.23;;;-0.60;99.90;;;;;;5078756;28;20103;-71
2022/11/21 02:09:58;;;;;;;22.10;10.18;;;-0.60;99.90;;;;;;5060467;28;20021;-71
2022/11/21 02:12:43;;;;;;;26.83;11.43;;;-0.50;99.90;;;;;;5078228;28;20013;-71
2022/11/21 02:15:11;;;;;;;23.45;9.23;;;-0.50;99.90;;;;;;5078135;28;20021;-71
2022/11/21 02:17:38;;;;;;;27.65;11.45;;;-0.50;99.90;;;;;;5078733;28;20020;-71
2022/11/21 02:20:09;;;;;;;25.27;10.80;;;-0.50;99.90;;;;;;5060336;28;20109;-71
2022/11/21 02:22:54;;;;;;;25.80;11.02;;;-0.50;99.90;;;;;;5060275;28;20035;-71
2022/11/21 02:25:31;;;;;;;23.13;9.80;;;-0.50;99.90;;;;;;5060206;28;20416;-71
2022/11/21 02:28:02;;;;;;;;;;;-0.50;99.90;;;;;;5078787;28;20035;-71
2022/11/21 02:30:31;;;;;;;23.23;9.52;;;-0.50;99.90;;;;;;5078087;28;19904;-71
2022/11/21 02:32:59;;;;;;;25.52;10.25;;;-0.50;99.90;;;;;;5077963;28;20028;-71
2022/11/21 02:35:26;;;;;;;22.90;10.13;;;-0.50;99.90;;;;;;5078255;28;20407;-71
2022/11/21 02:38:13;;;;;;;27.08;10.73;;;-0.50;99.90;;;;;;5059458;28;20036;-71
2022/11/21 02:40:51;;;;;;;21.30;10.00;;;-0.50;99.90;;;;;;5059831;28;20020;-71
2022/11/21 02:43:36;;;;;;;22.75;10.18;;;-0.60;99.90;;;;;;5077935;28;20436;-71
2022/11/21 02:46:04;;;;;;;22.85;10.60;;;-0.50;99.90;;;;;;5077500;28;20024;-71
2022/11/21 02:48:32;;;;;;;21.95;10.52;;;-0.50;99.90;;;;;;5077373;28;20028;-71
2022/11/21 02:50:59;;;;;;;21.45;10.88;;;-0.60;99.90;;;;;;5077436;28;20070;-71
2022/11/21 02:53:27;;;;;;;22.58;9.35;;;-0.60;99.90;;;;;;5059825;28;20027;-71
2022/11/21 02:55:54;;;;;;;20.65;10.13;;;-0.60;99.90;;;;;;5069561;28;20044;-71
2022/11/21 02:58:21;;;;;;;22.85;10.25;;;-0.70;99.90;;;;;;5077354;28;20102;-71
2022/11/21 03:00:49;;;;;;;21.52;10.65;;;-0.70;99.90;;;;;;5076170;28;20039;-71
2022/11/21 03:03:16;;;;;;;23.73;10.73;;;-0.70;99.90;;;;;;5077860;28;20024;-71
2022/11/21 03:05:43;;;;;;;21.98;10.55;;;-0.70;99.90;;;;;;5076332;28;20393;-71
2022/11/21 03:08:11;;;;;;;24.42;10.50;;;-0.80;99.90;;;;;;5077093;28;20026;-71
2022/11/21 03:10:39;;;;;;;20.38;10.63;;;-0.80;99.90;;;;;;5076452;28;20013;-71
2022/11/21 03:13:06;;;;;;;20.55;9.63;;;-0.80;99.90;;;;;;5077217;28;20020;-71
2022/11/21 03:15:35;;;;;;;21.08;10.15;;;-0.80;99.90;;;;;;5077468;28;20021;-71
2022/11/21 03:18:03;;;;;;;23.00;10.32;;;-0.80;99.90;;;;;;5077127;28;20083;-71
2022/11/21 03:20:32;;;;;;;22.85;10.27;;;-0.90;99.90;;;;;;5076576;28;20329;-71
2022/11/21 03:23:00;;;;;;;21.33;10.30;;;-0.90;99.90;;;;;;5077325;28;20313;-71
2022/11/21 03:25:27;;;;;;;23.20;10.38;;;-1.00;99.90;;;;;;5077439;28;20017;-71
2022/11/21 03:27:55;;;;;;;22.98;9.55;;;-1.00;99.90;;;;;;5076826;28;20025;-71
2022/11/21 03:30:24;;;;;;;20.45;9.63;;;-1.10;99.90;;;;;;5075711;28;20075;-71
2022/11/21 03:32:55;;;;;;;21.25;11.40;;;-1.10;99.90;;;;;;5077409;28;20025;-71
2022/11/21 03:35:22;;;;;;;45.15;17.90;;;-1.20;99.90;;;;;;5077266;28;20066;-71
2022/11/21 03:37:50;;;;;;;43.40;16.88;;;-1.40;99.90;;;;;;5075901;28;20036;-71
2022/11/21 03:40:18;;;;;;;36.50;15.23;;;-1.50;99.90;;;;;;5075573;28;20028;-71
2022/11/21 03:42:45;;;;;;;31.70;14.38;;;-1.60;99.90;;;;;;5075528;28;20028;-71
2022/11/21 03:45:13;;;;;;;34.33;13.98;;;-1.70;99.90;;;;;;5077175;28;20059;-71
2022/11/21 03:47:40;;;;;;;25.35;11.38;;;-1.80;99.90;;;;;;5074469;28;20029;-71
2022/11/21 03:50:09;;;;;;;28.35;11.73;;;-1.80;99.90;;;;;;5075946;28;20078;-71
2022/11/21 03:52:37;;;;;;;23.00;9.27;;;-1.90;99.90;;;;;;5077083;28;20020;-71
2022/11/21 03:55:05;;;;;;;22.50;9.30;;;-2.00;99.90;;;;;;5075218;28;20079;-71
2022/11/21 03:57:32;;;;;;;21.77;9.50;;;-2.10;99.90;;;;;;5075569;28;20024;-71
2022/11/21 04:00:00;;;;;;;21.67;9.50;;;-2.10;99.90;;;;;;5076500;28;20078;-71
2022/11/21 04:02:27;;;;;;;19.25;8.70;;;-2.10;99.90;;;;;;5075320;28;20428;-71
2022/11/21 04:04:54;;;;;;;22.98;9.70;;;-2.20;99.90;;;;;;5076936;28;20021;-71
2022/11/21 04:07:22;;;;;;;22.98;9.02;;;-2.30;99.90;;;;;;5076833;28;20036;-71
2022/11/21 04:09:49;;;;;;;20.23;8.50;;;-2.30;99.90;;;;;;5076591;28;20066;-71
2022/11/21 04:12:17;;;;;;;19.90;9.77;;;-2.30;99.90;;;;;;5075099;28;20035;-71
2022/11/21 04:14:44;;;;;;;20.80;8.30;;;-2.30;99.90;;;;;;5075045;28;20025;-71
2022/11/21 04:17:12;;;;;;;21.77;9.52;;;-2.30;99.90;;;;;;5076901;28;20043;-71
2022/11/21 04:19:39;;;;;;;23.35;9.32;;;-2.40;99.90;;;;;;5076433;28;20020;-71
2022/11/21 04:22:07;;;;;;;21.83;9.05;;;-2.40;99.90;;;;;;5080241;28;20100;-71
2022/11/21 04:24:35;;;;;;;17.67;8.30;;;-2.50;99.90;;;;;;5080900;28;20017;-71
2022/11/21 04:27:02;;;;;;;19.83;8.70;;;-2.60;99.90;;;;;;5080788;28;20095;-71
2022/11/21 04:29:30;;;;;;;21.90;9.00;;;-2.60;99.90;;;;;;5080932;28;20051;-71
2022/11/21 04:31:58;;;;;;;23.58;9.45;;;-2.70;99.90;;;;;;5080401;28;20032;-71
2022/11/21 04:34:25;;;;;;;16.13;7.93;;;-2.70;99.90;;;;;;5080055;28;20324;-71
2022/11/21 04:36:53;;;;;;;22.27;9.68;;;-2.70;99.90;;;;;;5079251;28;20027;-71
2022/11/21 04:39:21;;;;;;;18.88;7.90;;;-2.70;99.90;;;;;;5079995;28;20096;-71
2022/11/21 04:41:48;;;;;;;20.48;8.57;;;-2.80;99.90;;;;;;5079116;28;20324;-71
2022/11/21 04:44:16;;;;;;;26.83;11.40;;;-2.80;99.90;;;;;;5079009;28;20021;-71
2022/11/21 04:46:44;;;;;;;23.65;10.55;;;-2.70;99.90;;;;;;5080388;28;20417;-71
2022/11/21 04:49:11;;;;;;;21.02;9.18;;;-2.70;99.90;;;;;;5078615;28;20028;-71
2022/11/21 04:51:38;;;;;;;22.02;10.57;;;-2.70;99.90;;;;;;5079680;28;20016;-71
2022/11/21 04:54:06;;;;;;;19.95;8.60;;;-2.70;99.90;;;;;;5079941;28;20021;-71
2022/11/21 04:56:33;;;;;;;23.92;9.85;;;-2.60;99.90;;;;;;5098522;28;20044;-71
2022/11/21 04:59:00;;;;;;;20.05;8.63;;;-2.60;99.90;;;;;;5081281;28;20020;-71
2022/11/21 05:01:27;;;;;;;23.80;9.93;;;-2.50;99.90;;;;;;5081822;28;20369;-71
2022/11/21 05:03:55;;;;;;;24.17;10.57;;;-2.40;99.90;;;;;;5099767;28;20068;-71
2022/11/21 05:06:22;;;;;;;29.10;9.93;;;-2.40;99.90;;;;;;5100299;28;20035;-71
2022/11/21 05:08:49;;;;;;;23.20;9.50;;;-2.40;99.90;;;;;;5099807;28;20034;-71
2022/11/21 05:14:03;;;;;;;23.52;9.90;;;-2.30;99.90;;;;;;5099974;28;20429;-71
2022/11/21 05:16:32;;;;;;;24.88;10.23;;;-2.30;99.90;;;;;;5081855;28;20320;-71
2022/11/21 05:18:59;;;;;;;21.88;9.10;;;-2.30;99.90;;;;;;5099137;28;20107;-71
2022/11/21 05:21:27;;;;;;;21.67;10.60;;;-2.20;99.90;;;;;;5100027;28;20392;-71
2022/11/21 05:23:54;;;;;;;24.27;9.68;;;-2.20;99.90;;;;;;5081477;28;20335;-71
2022/11/21 05:26:21;;;;;;;24.25;9.82;;;-2.20;99.90;;;;;;5099406;28;20027;-71
2022/11/21 05:28:48;;;;;;;22.20;9.40;;;-2.10;99.90;;;;;;5081472;28;20024;-71
2022/11/21 05:31:15;;;;;;;24.75;10.90;;;-2.10;99.90;;;;;;5081305;28;20082;-71
2022/11/21 05:33:42;;;;;;;30.85;11.50;;;-2.10;99.90;;;;;;5098688;28;20028;-71
2022/11/21 05:36:10;;;;;;;29.13;11.07;;;-2.10;99.90;;;;;;5099475;28;20099;-71
2022/11/21 05:38:37;;;;;;;27.77;11.10;;;-2.00;99.90;;;;;;5098761;28;20112;-71
2022/11/21 05:41:05;;;;;;;27.80;10.73;;;-2.00;99.90;;;;;;5081124;28;20035;-71
2022/11/21 05:43:45;;;;;;;22.25;8.60;;;-2.00;99.90;;;;;;5099105;28;20028;-71
2022/11/21 05:46:30;;;;;;;25.52;9.13;;;-2.00;99.90;;;;;;5099017;28;20028;-71
2022/11/21 05:48:58;;;;;;;22.50;9.13;;;-2.00;99.90;;;;;;5099007;28;20354;-71
2022/11/21 05:51:26;;;;;;;38.05;15.73;;;-2.10;99.90;;;;;;5099467;28;20022;-71
2022/11/21 05:53:53;;;;;;;22.42;10.10;;;-2.10;99.90;;;;;;5099429;28;20026;-71
2022/11/21 05:56:21;;;;;;;20.75;9.93;;;-2.00;99.90;;;;;;5098725;28;20067;-71
2022/11/21 05:58:48;;;;;;;27.10;10.48;;;-2.00;99.90;;;;;;5098922;28;20019;-71
2022/11/21 06:03:25;;;;;;;28.40;10.13;;;-2.00;99.90;;;;;;5099233;28;20031;-71
2022/11/21 06:04:03;;;;;;;28.45;11.00;;;-2.00;99.90;;;;;;5098304;28;20067;-71
2022/11/21 06:06:31;;;;;;;24.73;11.10;;;-2.00;99.90;;;;;;5098604;28;20415;-71
2022/11/21 06:08:58;;;;;;;25.05;11.23;;;-1.90;99.90;;;;;;5099081;28;20031;-71
2022/11/21 06:11:26;;;;;;;30.45;11.43;;;-1.90;99.90;;;;;;5099060;28;20020;-71
2022/11/21 06:13:53;;;;;;;24.52;10.25;;;-1.90;99.90;;;;;;5080495;28;20024;-71
2022/11/21 06:16:21;;;;;;;21.80;9.60;;;-1.80;99.90;;;;;;5080461;28;20043;-71
2022/11/21 06:18:54;;;;;;;23.83;10.77;;;-1.80;99.90;;;;;;5098404;28;20023;-71
2022/11/21 06:21:23;;;;;;;25.38;10.82;;;-1.80;99.90;;;;;;5098853;28;20315;-71
2022/11/21 06:23:53;;;;;;;27.98;11.23;;;-1.70;99.90;;;;;;5098388;28;20020;-71
2022/11/21 06:26:23;;;;;;;23.30;10.35;;;-1.70;99.90;;;;;;5099558;28;20105;-71
2022/11/21 06:28:51;;;;;;;29.88;11.50;;;-1.60;99.90;;;;;;5098123;28;20024;-71
2022/11/21 06:31:26;;;;;;;29.63;11.82;;;-1.60;99.90;;;;;;5098647;28;20410;-79
2022/11/21 06:33:56;;;;;;;34.05;12.18;;;-1.50;99.90;;;;;;5098158;28;20484;-72
2022/11/21 06:36:23;;;;;;;25.92;10.50;;;-1.50;99.90;;;;;;5098534;28;20024;-72
2022/11/21 06:38:54;;;;;;;30.73;12.05;;;-1.50;99.90;;;;;;5098025;28;20481;-72
2022/11/21 06:41:23;;;;;;;24.67;10.80;;;-1.50;99.90;;;;;;5097885;28;20412;-73
2022/11/21 06:43:51;;;;;;;28.73;10.68;;;-1.50;99.90;;;;;;5097075;28;20077;-74
2022/11/21 06:46:19;;;;;;;29.95;12.82;;;-1.40;99.90;;;;;;5079868;28;20028;-74
2022/11/21 06:48:46;;;;;;;28.45;10.85;;;-1.40;99.90;;;;;;5097817;28;20500;-75
2022/11/21 06:51:21;;;;;;;28.08;10.70;;;-1.30;99.90;;;;;;5079698;28;20342;-75
2022/11/21 06:53:57;;;;;;;29.00;11.50;;;-1.30;99.90;;;;;;5098085;28;20026;-74
2022/11/21 06:56:26;;;;;;;24.77;10.65;;;-1.20;99.90;;;;;;5097452;28;20052;-74
2022/11/21 06:58:54;;;;;;;27.70;11.32;;;-1.20;99.90;;;;;;5097863;28;20097;-76
2022/11/21 07:01:22;;;;;;;25.55;10.23;;;-1.20;99.90;;;;;;5097562;28;20035;-78
2022/11/21 07:03:50;;;;;;;32.72;12.13;;;-1.10;99.90;;;;;;5079049;28;20395;-74
2022/11/21 07:06:18;;;;;;;32.63;11.80;;;-1.10;99.90;;;;;;5097727;28;20024;-76
2022/11/21 07:08:44;;;;;;;29.20;10.82;;;-1.00;99.90;;;;;;5097355;28;20031;-77
2022/11/21 07:11:14;;;;;;;30.58;12.77;;;-1.00;99.90;;;;;;5079377;28;20354;-79
2022/11/21 07:13:42;;;;;;;32.58;12.90;;;-1.00;99.90;;;;;;5097755;28;20055;-74
2022/11/21 07:16:14;;;;;;;28.70;11.65;;;-0.90;99.90;;;;;;5097827;28;20038;-72
2022/11/21 07:18:42;;;;;;;28.75;11.30;;;-0.90;99.90;;;;;;5079257;28;20031;-75
2022/11/21 07:21:09;;;;;;;29.45;12.25;;;-0.80;99.90;;;;;;5097442;28;20408;-75
2022/11/21 07:23:36;;;;;;;29.23;11.40;;;-0.80;99.90;;;;;;5079105;28;20324;-79
2022/11/21 07:26:06;;;;;;;29.60;11.40;;;-0.70;99.90;;;;;;5097136;28;20366;-78
2022/11/21 07:28:34;;;;;;;23.00;10.25;;;-0.70;99.90;;;;;;5096983;28;20083;-79
2022/11/21 07:31:02;;;;;;;21.75;8.90;;;-0.70;99.90;;;;;;5097025;28;20475;-80
2022/11/21 07:33:30;;;;;;;22.52;9.27;;;-0.60;99.90;;;;;;5096910;28;20024;-77
2022/11/21 07:35:58;;;;;;;23.23;9.38;;;-0.60;99.90;;;;;;5097319;28;20051;-78
2022/11/21 07:38:25;;;;;;;22.58;9.68;;;-0.50;99.90;;;;;;5097117;28;20024;-77
2022/11/21 07:40:56;;;;;;;25.92;9.88;;;-0.50;99.90;;;;;;5097170;28;20024;-77
2022/11/21 07:43:24;;;;;;;20.58;9.50;;;-0.40;99.90;;;;;;5096884;28;20374;-78
2022/11/21 07:45:52;;;;;;;25.85;10.45;;;-0.40;99.90;;;;;;5097392;28;20021;-77
2022/11/21 07:48:19;;;;;;;27.38;11.48;;;-0.40;99.90;;;;;;5078919;28;20054;-77
2022/11/21 07:50:47;;;;;;;24.92;10.40;;;-0.40;99.90;;;;;;5097316;28;20081;-80
2022/11/21 07:53:14;;;;;;;26.70;10.65;;;-0.40;99.90;;;;;;5097018;28;20028;-71
2022/11/21 07:55:42;;;;;;;23.98;10.63;;;-0.30;99.90;;;;;;5096237;28;20116;-71
2022/11/21 07:58:12;;;;;;;23.83;9.95;;;-0.30;99.90;;;;;;5096917;28;20154;-71
2022/11/21 08:00:41;;;;;;;23.85;9.38;;;-0.30;99.90;;;;;;5096640;28;20047;-73
2022/11/21 08:03:10;;;;;;;22.48;9.90;;;-0.20;99.90;;;;;;5096581;28;20024;-72
2022/11/21 08:05:39;;;;;;;25.73;10.50;;;-0.20;99.90;;;;;;5097203;28;20024;-73
2022/11/21 08:08:09;;;;;;;25.80;11.15;;;-0.20;99.90;;;;;;5096734;28;20420;-73
2022/11/21 08:10:41;;;;;;;25.00;10.10;;;-0.20;99.90;;;;;;5096890;28;20036;-72
2022/11/21 08:13:09;;;;;;;19.05;8.48;;;-0.10;99.90;;;;;;5096702;28;20024;-72
2022/11/21 08:15:37;;;;;;;19.45;9.05;;;-0.10;99.90;;;;;;5097090;28;20102;-72
2022/11/21 08:18:20;;;;;;;25.38;9.73;;;0.00;99.90;;;;;;5096951;28;20020;-72
2022/11/21 08:20:48;;;;;;;18.15;7.80;;;0.10;99.90;;;;;;5096455;28;20031;-73
2022/11/21 08:23:15;;;;;;;17.98;8.75;;;0.10;99.90;;;;;;5096787;28;20027;-72
2022/11/21 08:25:43;;;;;;;20.30;8.48;;;0.20;99.90;;;;;;5097007;28;20428;-71
2022/11/21 08:28:11;;;;;;;17.13;7.40;;;0.20;99.90;;;;;;5096426;28;20039;-71
2022/11/21 08:30:40;;;;;;;18.27;8.45;;;0.30;99.90;;;;;;5096920;28;20369;-71
2022/11/21 08:33:07;;;;;;;19.58;8.68;;;0.30;99.90;;;;;;5078383;28;20428;-71
2022/11/21 08:35:38;;;;;;;16.58;8.02;;;0.30;99.90;;;;;;5096728;28;20027;-71
2022/11/21 08:38:06;;;;;;;19.52;8.25;;;0.40;99.90;;;;;;5096365;28;20103;-71
2022/11/21 08:40:34;;;;;;;21.02;8.88;;;0.40;99.90;;;;;;5096837;28;20025;-69
2022/11/21 08:43:05;;;;;;;20.13;8.13;;;0.50;99.90;;;;;;5096301;28;20301;-69
2022/11/21 08:45:33;;;;;;;17.80;7.72;;;0.50;99.90;;;;;;5078341;28;20024;-68
2022/11/21 08:48:01;;;;;;;16.10;7.57;;;0.50;99.90;;;;;;5096318;28;20324;-69
2022/11/21 08:50:28;;;;;;;21.33;7.68;;;0.50;99.90;;;;;;5096938;28;20043;-71
2022/11/21 08:53:02;;;;;;;17.38;7.93;;;0.50;99.90;;;;;;5078391;28;20025;-71
2022/11/21 08:55:30;;;;;;;20.77;8.55;;;0.50;99.90;;;;;;5074663;28;20139;-71
2022/11/21 08:58:00;;;;;;;18.67;8.50;;;0.60;99.90;;;;;;5075944;28;20032;-71
2022/11/21 09:00:27;;;;;;;18.23;8.07;;;0.60;99.90;;;;;;5076381;28;20416;-71
2022/11/21 09:02:54;;;;;;;15.70;6.90;;;0.70;99.90;;;;;;5076519;28;20039;-71
2022/11/21 09:05:22;;;;;;;15.77;6.75;;;0.70;99.90;;;;;;5075860;28;20108;-71
2022/11/21 09:07:56;;;;;;;19.08;7.63;;;0.70;99.90;;;;;;5077794;28;20290;-69
2022/11/21 09:10:31;;;;;;;16.33;6.28;;;0.70;99.90;;;;;;5079863;28;20108;-71
2022/11/21 09:12:59;;;;;;;13.90;6.20;;;0.70;99.90;;;;;;5079550;28;20020;-70
2022/11/21 09:18:12;;;;;;;17.80;7.07;;;0.80;99.90;;;;;;5079545;28;20036;-72
2022/11/21 09:20:42;;;;;;;14.95;6.15;;;0.80;99.90;;;;;;5078208;28;20029;-72
2022/11/21 09:23:11;;;;;;;15.07;7.00;;;0.90;99.90;;;;;;5079111;28;20110;-73
2022/11/21 09:25:39;;;;;;;15.93;7.30;;;1.00;99.90;;;;;;5079184;28;20016;-75
2022/11/21 09:28:11;;;;;;;15.18;7.47;;;1.00;99.90;;;;;;5079098;28;20482;-73
2022/11/21 09:30:39;;;;;;;15.55;6.13;;;1.00;99.90;;;;;;5079084;28;20328;-73
2022/11/21 09:33:12;;;;;;;14.65;6.88;;;1.00;99.90;;;;;;5079118;28;20021;-71
2022/11/21 09:35:40;;;;;;;17.55;7.35;;;1.00;99.90;;;;;;5079001;28;20027;-71
2022/11/21 09:38:07;;;;;;;16.67;7.75;;;1.00;99.90;;;;;;5078940;28;20027;-71
2022/11/21 09:40:36;;;;;;;16.92;7.80;;;1.00;99.90;;;;;;5078821;28;20334;-72
2022/11/21 09:43:26;;;;;;;19.83;8.15;;;1.00;99.90;;;;;;5077898;28;20029;-73
2022/11/21 09:46:07;;;;;;;19.88;9.20;;;1.10;99.90;;;;;;5079312;28;20099;-73
2022/11/21 09:48:47;;;;;;;14.80;7.40;;;1.10;99.90;;;;;;5078945;28;20024;-69
2022/11/21 09:51:18;;;;;;;16.05;7.88;;;1.20;99.90;;;;;;5079235;28;20017;-68
2022/11/21 09:54:03;;;;;;;16.40;8.05;;;1.20;99.90;;;;;;5078858;28;20048;-73
2022/11/21 09:56:37;;;;;;;15.95;7.18;;;1.20;99.90;;;;;;5096617;28;20065;-73
2022/11/21 09:59:33;;;;;;;15.00;7.07;;;1.20;99.90;;;;;;5080185;28;20115;-70
2022/11/21 10:02:03;;;;;;;16.23;7.72;;;1.20;99.90;;;;;;5099007;28;20103;-71
2022/11/21 10:04:31;;;;;;;15.75;7.18;;;1.30;99.90;;;;;;5098630;28;20020;-69
2022/11/21 10:07:21;;;;;;;14.95;7.22;;;1.30;99.90;;;;;;5099187;28;20031;-71
2022/11/21 10:10:28;;;;;;;16.58;7.60;;;1.40;99.90;;;;;;5080660;28;20090;-71
2022/11/21 10:12:58;;;;;;;13.32;6.68;;;1.50;99.90;;;;;;5080724;28;20052;-72
2022/11/21 10:16:08;;;;;;;14.30;6.30;;;1.60;99.90;;;;;;5098720;28;20028;-71
2022/11/21 10:19:01;;;;;;;15.85;6.05;;;1.60;99.90;;;;;;5098446;28;20020;-70
2022/11/21 10:21:50;;;;;;;13.40;6.47;;;1.50;99.90;;;;;;5098371;28;20028;-72
2022/11/21 10:24:39;;;;;;;16.95;7.50;;;1.50;99.90;;;;;;5098964;28;20016;-72
2022/11/21 10:27:29;;;;;;;16.13;7.60;;;1.60;99.90;;;;;;5098797;28;20023;-73
2022/11/21 10:30:20;;;;;;;13.88;7.25;;;1.50;99.90;;;;;;5098706;28;20069;-80
2022/11/21 10:33:05;;;;;;;13.35;6.25;;;1.50;99.90;;;;;;5098285;28;20102;-76
2022/11/21 10:35:48;;;;;;;14.77;7.45;;;1.50;99.90;;;;;;5080067;28;20016;-76
2022/11/21 10:38:27;;;;;;;12.98;5.93;;;1.60;99.90;;;;;;5097944;28;20027;-75
2022/11/21 10:41:05;;;;;;;14.02;6.90;;;1.70;99.90;;;;;;5097922;28;20063;-75
2022/11/21 10:46:23;;;;;;;13.07;6.20;;;1.80;99.90;;;;;;5097861;28;20525;-73
2022/11/21 10:49:02;;;;;;;15.48;6.45;;;1.80;99.90;;;;;;5079834;28;20024;-77
2022/11/21 10:52:01;;;;;;;14.05;6.82;;;1.80;99.90;;;;;;5098320;28;20027;-73
2022/11/21 10:54:35;;;;;;;13.07;6.70;;;1.80;99.90;;;;;;5098014;28;20432;-76
2022/11/21 10:57:15;;;;;;;14.90;6.63;;;1.90;99.90;;;;;;5098395;28;20339;-74
2022/11/21 10:59:57;;;;;;;11.63;6.13;;;2.00;99.90;;;;;;5098157;28;20032;-76
2022/11/21 11:02:25;;;;;;;15.25;6.75;;;2.00;99.90;;;;;;5097859;28;20439;-76
2022/11/21 11:05:11;;;;;;;13.90;5.90;;;2.10;99.90;;;;;;5097443;28;20035;-75
2022/11/21 11:07:38;;;;;;;15.40;7.88;;;2.10;99.90;;;;;;5098072;28;20534;-73
2022/11/21 11:10:23;;;;;;;13.50;7.05;;;2.20;99.90;;;;;;5097339;28;20103;-74
2022/11/21 11:15:52;;;;;;;14.80;6.90;;;2.40;99.90;;;;;;5097642;28;20460;-73
2022/11/21 11:18:22;;;;;;;13.88;6.50;;;2.40;99.90;;;;;;5097346;28;20035;-73
2022/11/21 11:20:51;;;;;;;12.15;6.57;;;2.50;99.90;;;;;;5097237;28;20048;-75
2022/11/21 11:23:21;;;;;;;15.20;7.10;;;2.60;99.90;;;;;;5079187;28;20020;-73
2022/11/21 11:26:00;;;;;;;17.67;7.57;;;2.60;99.90;;;;;;5097633;28;20031;-74
2022/11/21 11:28:35;;;;;;;14.52;6.93;;;2.60;99.90;;;;;;5097229;28;20028;-79
2022/11/21 11:31:03;;;;;;;15.07;8.10;;;2.60;99.90;;;;;;5078622;28;20027;-79
2022/11/21 11:33:40;;;;;;;13.48;7.13;;;2.60;99.90;;;;;;5079114;28;20273;-80
2022/11/21 11:36:19;;;;;;;15.10;7.63;;;2.60;99.90;;;;;;5097276;28;20078;-79
2022/11/21 11:38:58;;;;;;;16.38;8.02;;;2.70;99.90;;;;;;5097417;28;20354;-79
2022/11/21 11:47:41;;;;;;;13.38;7.25;;;2.90;99.90;;;;;;5097028;28;20080;-73
2022/11/21 11:50:18;;;;;;;13.90;7.18;;;2.90;99.90;;;;;;5078887;28;20031;-73
2022/11/21 11:53:13;;;;;;;12.88;7.28;;;2.90;99.90;;;;;;5096871;28;20121;-73
2022/11/21 11:55:44;;;;;;;13.27;6.75;;;3.00;99.90;;;;;;5096880;28;20048;-70
2022/11/21 11:58:29;;;;;;;14.77;8.40;;;2.90;99.90;;;;;;5096920;28;20420;-72
2022/11/21 12:01:16;;;;;;;15.43;6.57;;;2.90;99.90;;;;;;5097277;28;20024;-73
2022/11/21 12:04:17;;;;;;;16.08;8.10;;;2.90;99.90;;;;;;5096555;28;20415;-73
2022/11/21 12:06:48;;;;;;;15.98;7.97;;;2.80;99.90;;;;;;5091954;28;20040;-73
2022/11/21 12:09:38;;;;;;;15.23;7.88;;;2.70;99.90;;;;;;5097529;28;20028;-73
2022/11/21 12:12:33;;;;;;;11.75;6.45;;;2.70;99.90;;;;;;5096615;28;20077;-72
2022/11/21 12:18:16;;;;;;;16.17;7.38;;;2.60;99.90;;;;;;5053047;28;20050;-73
2022/11/21 12:20:47;;;;;;;13.95;7.50;;;2.70;99.90;;;;;;5079565;28;20032;-72
2022/11/21 12:23:14;;;;;;;14.95;7.30;;;2.60;99.90;;;;;;5097611;28;20028;-72
2022/11/21 12:26:03;;;;;;;14.13;7.45;;;2.70;99.90;;;;;;5096478;28;20027;-72
2022/11/21 12:28:47;;;;;;;14.50;7.75;;;2.70;99.90;;;;;;5096531;28;20082;-72
2022/11/21 12:31:39;;;;;;;14.07;7.07;;;2.70;99.90;;;;;;5096949;28;20012;-72
2022/11/21 12:34:34;;;;;;;13.70;6.70;;;2.70;99.90;;;;;;5096500;28;20049;-72
2022/11/21 12:37:33;;;;;;;17.58;7.35;;;2.70;99.90;;;;;;5096819;28;20035;-72
2022/11/21 12:40:35;;;;;;;12.57;6.43;;;2.70;99.90;;;;;;5096325;28;20016;-72
2022/11/21 12:43:12;;;;;;;15.00;7.22;;;2.70;99.90;;;;;;5098504;28;20023;-72
2022/11/21 12:46:04;;;;;;;13.77;6.65;;;2.70;99.90;;;;;;5100621;28;20039;-72
2022/11/21 12:54:56;;;;;;;10.82;5.43;;;2.50;99.90;;;;;;5099825;28;20051;-71
2022/11/21 12:57:52;;;;;;;12.77;6.55;;;2.40;99.90;;;;;;5100683;28;20026;-73
2022/11/21 13:00:33;;;;;;;12.95;5.90;;;2.40;99.90;;;;;;5100503;28;20020;-72
2022/11/21 13:03:33;;;;;;;13.43;6.22;;;2.40;99.90;;;;;;5100567;28;20375;-72
2022/11/21 13:06:03;;;;;;;12.18;6.45;;;2.30;99.90;;;;;;5045382;28;20373;-73
2022/11/21 13:08:41;;;;;;;12.80;6.38;;;2.30;99.90;;;;;;5100438;28;20031;-73
2022/11/21 13:14:28;;;;;;;12.10;6.00;;;2.20;99.90;;;;;;5099839;28;20039;-71
2022/11/21 13:16:59;;;;;;;13.18;6.80;;;2.10;99.90;;;;;;5099764;28;20459;-71
2022/11/21 13:19:38;;;;;;;16.70;8.82;;;2.10;99.90;;;;;;5099574;28;20028;-71
2022/11/21 13:22:37;;;;;;;17.52;8.35;;;2.10;99.90;;;;;;5099488;28;20417;-71
2022/11/21 13:25:10;;;;;;;16.27;7.93;;;2.10;99.90;;;;;;5099603;28;20408;-71
2022/11/21 13:27:39;;;;;;;12.30;6.53;;;2.10;99.90;;;;;;5099446;28;20461;-71
2022/11/21 13:30:10;;;;;;;10.65;6.32;;;2.20;99.90;;;;;;5100278;28;20016;-74
2022/11/21 13:32:52;;;;;;;12.20;6.63;;;2.20;99.90;;;;;;5100443;28;20016;-72